createdAt,value
2023-05-08T00:00:11.935Z,8.43
2023-05-08T00:05:14.024Z,7.40
2023-05-08T00:10:15.911Z,7.77
2023-05-08T00:15:17.793Z,7.20
2023-05-08T00:20:19.542Z,7.93
2023-05-08T00:25:21.236Z,7.37
2023-05-08T00:30:23.273Z,7.67
2023-05-08T00:35:25.016Z,7.37
2023-05-08T00:40:26.928Z,7.50
2023-05-08T00:45:39.141Z,7.33
2023-05-08T00:50:41.195Z,7.00
2023-05-08T00:55:43.105Z,6.73
2023-05-08T01:00:46.004Z,7.63
2023-05-08T01:05:48.785Z,7.47
2023-05-08T01:11:06.963Z,7.37
2023-05-08T01:16:16.387Z,7.47
2023-05-08T01:21:24.767Z,7.80
2023-05-08T01:26:57.475Z,7.80
2023-05-08T01:32:07.536Z,7.17
2023-05-08T01:37:14.996Z,7.73
2023-05-08T01:42:24.548Z,6.77
2023-05-08T01:47:33.627Z,7.63
2023-05-08T01:52:40.803Z,7.40
2023-05-08T01:57:48.287Z,6.80
2023-05-08T02:02:51.428Z,7.20
2023-05-08T02:07:53.967Z,7.13
2023-05-08T02:12:56.374Z,6.53
2023-05-08T02:17:59.221Z,6.60
2023-05-08T02:23:01.461Z,7.93
2023-05-08T02:28:03.866Z,8.43
2023-05-08T02:33:08.408Z,7.20
2023-05-08T02:38:10.894Z,8.10
2023-05-08T02:43:12.662Z,7.50
2023-05-08T02:48:25.605Z,7.53
2023-05-08T02:53:37.662Z,7.43
2023-05-08T02:59:06.517Z,8.50
2023-05-08T03:10:29.685Z,8.30
2023-05-08T03:15:37.882Z,8.10
2023-05-08T03:20:42.697Z,8.17
2023-05-08T03:25:44.866Z,8.57
2023-05-08T03:30:46.944Z,8.97
2023-05-08T03:35:49.633Z,9.00
2023-05-08T03:40:51.532Z,9.37
2023-05-08T03:45:53.777Z,9.63
2023-05-08T03:50:58.060Z,8.93
2023-05-08T03:56:00.258Z,9.60
2023-05-08T04:01:14.178Z,9.77
2023-05-08T04:06:50.585Z,10.27
2023-05-08T04:12:04.062Z,9.60
2023-05-08T04:17:07.756Z,9.00
2023-05-08T04:22:14.745Z,10.30
2023-05-08T04:27:16.630Z,10.97
2023-05-08T04:32:18.640Z,10.63
2023-05-08T04:37:28.210Z,10.40
2023-05-08T04:42:30.546Z,10.47
2023-05-08T04:47:32.412Z,9.83
2023-05-08T04:52:50.869Z,9.13
2023-05-08T04:57:52.837Z,10.20
2023-05-08T05:02:56.637Z,11.47
2023-05-08T05:08:00.427Z,11.27
2023-05-08T05:13:02.275Z,11.10
2023-05-08T05:18:04.312Z,15.63
2023-05-08T05:23:08.466Z,11.13
2023-05-08T05:28:17.976Z,10.40
2023-05-08T05:33:20.196Z,11.50
2023-05-08T05:38:21.996Z,10.13
2023-05-08T05:43:23.714Z,10.70
2023-05-08T05:48:25.460Z,11.07
2023-05-08T05:53:27.307Z,12.17
2023-05-08T05:58:29.251Z,11.87
2023-05-08T06:03:31.136Z,10.37
2023-05-08T06:08:34.391Z,10.97
2023-05-08T06:13:36.149Z,12.00
2023-05-08T06:18:37.860Z,10.50
2023-05-08T06:23:39.497Z,12.00
2023-05-08T06:28:41.238Z,10.90
2023-05-08T06:33:42.983Z,10.93
2023-05-08T06:38:44.668Z,11.77
2023-05-08T06:43:46.508Z,10.80
2023-05-08T06:48:48.198Z,10.33
2023-05-08T06:53:49.901Z,11.70
2023-05-08T06:59:04.505Z,10.43
2023-05-08T07:04:09.884Z,11.17
2023-05-08T07:09:12.062Z,11.80
2023-05-08T07:14:14.020Z,10.93
2023-05-08T07:19:15.683Z,11.27
2023-05-08T07:24:17.459Z,12.63
2023-05-08T07:29:20.586Z,10.90
2023-05-08T07:34:22.466Z,10.60
2023-05-08T07:39:24.206Z,11.43
2023-05-08T07:44:26.008Z,11.47
2023-05-08T07:49:27.708Z,12.17
2023-05-08T07:54:29.515Z,11.20
2023-05-08T07:59:31.164Z,11.57
2023-05-08T08:04:33.252Z,11.33
2023-05-08T08:09:37.414Z,11.33
2023-05-08T08:14:39.237Z,11.57
2023-05-08T08:19:40.883Z,12.03
2023-05-08T08:24:42.660Z,11.63
2023-05-08T08:29:45.316Z,10.40
2023-05-08T08:34:47.045Z,11.97
2023-05-08T08:39:48.679Z,12.17
2023-05-08T08:44:51.330Z,11.00
2023-05-08T08:49:53.749Z,11.77
2023-05-08T08:54:57.368Z,11.83
2023-05-08T09:00:03.823Z,11.83
2023-05-08T09:05:06.085Z,10.70
2023-05-08T09:10:08.404Z,12.23
2023-05-08T09:15:10.408Z,11.83
2023-05-08T09:20:14.573Z,11.30
2023-05-08T09:25:18.932Z,11.13
2023-05-08T09:30:20.704Z,11.83
2023-05-08T09:35:36.635Z,11.00
2023-05-08T09:40:38.254Z,11.43
2023-05-08T09:45:41.399Z,12.53
2023-05-08T09:50:43.701Z,13.27
2023-05-08T09:55:49.054Z,11.93
2023-05-08T10:00:51.048Z,11.20
2023-05-08T10:05:52.807Z,11.40
2023-05-08T10:10:54.540Z,10.70
2023-05-08T10:15:56.824Z,9.60
2023-05-08T10:20:59.572Z,12.20
2023-05-08T10:26:08.960Z,10.00
2023-05-08T10:31:14.372Z,10.95
2023-05-08T10:36:16.259Z,9.07
2023-05-08T10:41:19.726Z,7.87
2023-05-08T10:46:40.462Z,6.63
2023-05-08T10:51:56.442Z,6.53
2023-05-08T10:57:11.691Z,7.73
2023-05-08T11:02:14.170Z,9.63
2023-05-08T11:07:16.075Z,9.33
2023-05-08T11:12:28.582Z,7.83
2023-05-08T11:17:30.439Z,8.93
2023-05-08T11:22:33.220Z,7.40
2023-05-08T11:27:50.138Z,6.00
2023-05-08T11:32:59.709Z,7.13
2023-05-08T11:38:21.529Z,6.40
2023-05-08T11:43:49.253Z,7.67
2023-05-08T11:48:59.773Z,8.20
2023-05-08T11:54:05.696Z,6.90
2023-05-08T11:59:08.871Z,6.33
2023-05-08T12:04:12.504Z,6.00
2023-05-08T12:09:16.378Z,6.60
2023-05-08T12:14:18.211Z,5.23
2023-05-08T12:19:20.058Z,6.50
2023-05-08T12:24:26.060Z,6.43
2023-05-08T12:29:27.882Z,5.77
2023-05-08T12:34:29.727Z,6.83
2023-05-08T12:39:35.897Z,6.10
2023-05-08T12:44:37.614Z,6.77
2023-05-08T12:49:39.407Z,7.83
2023-05-08T12:54:48.453Z,7.07
2023-05-08T12:59:50.545Z,6.50
2023-05-08T13:04:59.354Z,6.07
2023-05-08T13:10:04.731Z,5.67
2023-05-08T13:15:07.235Z,5.47
2023-05-08T13:20:09.623Z,5.93
2023-05-08T13:25:11.463Z,5.60
2023-05-08T13:30:15.306Z,5.33
2023-05-08T13:35:18.359Z,5.77
2023-05-08T13:40:20.356Z,5.20
2023-05-08T13:45:22.053Z,6.40
2023-05-08T13:50:23.803Z,5.70
2023-05-08T13:55:25.722Z,4.80
2023-05-08T14:00:28.258Z,4.97
2023-05-08T14:05:30.306Z,5.83
2023-05-08T14:10:32.038Z,5.50
2023-05-08T14:15:37.306Z,6.07
2023-05-08T14:20:39.545Z,6.23
2023-05-08T14:25:41.252Z,5.87
2023-05-08T14:30:43.073Z,6.63
2023-05-08T14:35:45.868Z,7.00
2023-05-08T14:40:50.972Z,5.23
2023-05-08T14:45:52.685Z,6.47
2023-05-08T14:50:54.501Z,7.17
2023-05-08T14:55:56.424Z,7.97
2023-05-08T15:00:58.245Z,9.47
2023-05-08T15:06:00.036Z,5.87
2023-05-08T15:11:01.739Z,3.80
2023-05-08T15:16:03.507Z,3.43
2023-05-08T15:21:05.516Z,3.70
2023-05-08T15:26:08.367Z,3.50
2023-05-08T15:31:10.081Z,4.85
2023-05-08T15:36:13.012Z,6.43
2023-05-08T15:41:15.563Z,6.10
2023-05-08T15:46:17.649Z,5.57
2023-05-08T15:51:19.666Z,6.13
2023-05-08T16:12:12.594Z,5.97
2023-05-08T16:18:21.371Z,6.93
2023-05-08T16:24:21.073Z,7.17
2023-05-08T16:35:50.068Z,7.37
2023-05-08T16:40:56.486Z,7.57
2023-05-08T16:47:05.131Z,8.00
2023-05-08T16:52:33.035Z,7.30
2023-05-08T16:57:35.630Z,7.47
2023-05-08T17:02:37.543Z,7.83
2023-05-08T17:14:10.641Z,7.93
2023-05-08T17:19:12.805Z,8.53
2023-05-08T17:37:38.949Z,7.30
2023-05-08T17:42:40.882Z,6.47
2023-05-08T17:47:42.618Z,8.37
2023-05-08T17:52:45.669Z,7.53
2023-05-08T18:04:21.768Z,7.10
2023-05-08T18:09:23.925Z,6.50
2023-05-08T18:14:30.095Z,6.63
2023-05-08T18:20:29.560Z,7.17
2023-05-08T18:36:43.874Z,8.43
2023-05-08T18:41:45.644Z,8.70
2023-05-08T18:54:47.881Z,8.00
2023-05-08T18:59:50.517Z,7.17
2023-05-08T19:04:52.390Z,8.83
2023-05-08T19:15:56.510Z,9.20
2023-05-08T19:20:58.420Z,9.63
2023-05-08T20:51:37.227Z,13.90
2023-05-08T20:57:07.900Z,18.30
2023-05-08T21:02:12.065Z,14.43
2023-05-08T21:07:26.842Z,16.47
2023-05-08T21:12:28.868Z,16.20
2023-05-08T21:17:36.048Z,15.83
2023-05-08T21:22:43.150Z,17.93
2023-05-08T21:27:45.063Z,19.17
2023-05-08T21:32:53.577Z,17.83
2023-05-08T21:38:08.367Z,17.10
2023-05-08T21:43:16.745Z,17.83
2023-05-08T21:48:37.455Z,17.70
2023-05-08T21:53:39.439Z,17.97
2023-05-08T21:58:41.310Z,19.30
2023-05-08T22:03:44.651Z,17.97
2023-05-08T22:08:52.362Z,18.27
2023-05-08T22:13:54.340Z,20.03
2023-05-08T22:18:57.901Z,16.73
2023-05-08T22:23:59.994Z,17.93
2023-05-08T22:29:05.307Z,17.73
2023-05-08T22:34:07.235Z,18.40
2023-05-08T22:39:11.934Z,17.70
2023-05-08T22:44:13.688Z,16.73
2023-05-08T22:49:15.508Z,19.07
2023-05-08T22:54:18.960Z,18.60
2023-05-08T22:59:20.839Z,19.77
2023-05-08T23:04:24.561Z,20.80
2023-05-08T23:09:28.994Z,17.87
2023-05-08T23:14:32.071Z,18.63
2023-05-08T23:19:35.585Z,17.83
2023-05-08T23:24:47.842Z,16.33
2023-05-08T23:29:50.010Z,16.43
2023-05-08T23:34:53.109Z,17.07
2023-05-08T23:39:55.866Z,18.13
2023-05-08T23:45:00.183Z,17.33
2023-05-08T23:50:04.871Z,17.70
2023-05-08T23:55:10.046Z,17.33
